Time;durP1;ratioP1;P1;durP2;ratioP2;P2;SDS_P1;SDS_P2;PMS_P1;PMS_P2;Temp;Humidity;BMP_temperature;BMP_pressure;BME280_temperature;BME280_humidity;BME280_pressure;Samples;Min_cycle;Max_cycle;Signal;HPM_P1;HPM_P2
2022/12/18 00:01:39;;;;;;;0.30;0.30;;;23.50;99.90;;;;;;4936528;29;20263;-68
2022/12/18 00:04:15;;;;;;;0.40;0.30;;;23.10;99.90;;;;;;4936023;29;20251;-71
2022/12/18 00:06:43;;;;;;;0.20;0.20;;;23.60;99.90;;;;;;4935686;29;20178;-68
2022/12/18 00:09:10;;;;;;;0.27;0.27;;;23.90;99.90;;;;;;4935847;29;20201;-75
2022/12/18 00:11:38;;;;;;;0.50;0.30;;;23.90;99.90;;;;;;4935977;29;20223;-67
2022/12/18 00:14:06;;;;;;;0.33;0.30;;;23.10;99.90;;;;;;4935682;29;20334;-73
2022/12/18 00:16:36;;;;;;;0.30;0.30;;;21.50;99.90;;;;;;4935992;29;20601;-66
2022/12/18 00:19:05;;;;;;;0.40;0.40;;;20.70;99.90;;;;;;4935940;29;20631;-66
2022/12/18 00:21:34;;;;;;;0.40;0.40;;;20.60;99.90;;;;;;4935641;29;20271;-76
2022/12/18 00:24:02;;;;;;;2.43;0.60;;;20.30;99.90;;;;;;4935444;29;21012;-74
2022/12/18 00:26:34;;;;;;;2.03;0.50;;;20.60;99.90;;;;;;4935722;29;20192;-69
2022/12/18 00:29:08;;;;;;;0.77;0.40;;;21.80;99.90;;;;;;4935391;29;20176;-67
2022/12/18 00:31:37;;;;;;;0.40;0.40;;;22.00;99.90;;;;;;4935723;29;20243;-67
2022/12/18 00:34:05;;;;;;;0.30;0.30;;;22.30;99.90;;;;;;4935757;29;20194;-67
2022/12/18 00:36:34;;;;;;;0.40;0.40;;;22.40;99.90;;;;;;4935201;29;20281;-67
2022/12/18 00:39:04;;;;;;;0.40;0.40;;;22.10;99.90;;;;;;4919147;29;20185;-66
2022/12/18 00:44:19;;;;;;;0.60;0.43;;;22.80;99.90;;;;;;4916723;29;20225;-66
2022/12/18 00:46:48;;;;;;;0.30;0.30;;;23.40;99.90;;;;;;4932289;29;20249;-67
2022/12/18 00:49:19;;;;;;;0.63;0.40;;;23.50;99.90;;;;;;4934715;29;20205;-70
2022/12/18 00:51:47;;;;;;;0.77;0.33;;;23.80;99.90;;;;;;4934471;29;20671;-78
2022/12/18 00:54:16;;;;;;;0.80;0.20;;;24.10;99.90;;;;;;4934577;29;20247;-67
2022/12/18 00:56:43;;;;;;;0.20;0.20;;;24.60;99.90;;;;;;4935212;29;20222;-67
2022/12/18 00:59:11;;;;;;;0.47;0.47;;;24.30;99.90;;;;;;4935253;29;20668;-68
2022/12/18 01:01:39;;;;;;;0.53;0.30;;;24.00;99.90;;;;;;4935412;29;20670;-77
2022/12/18 01:04:07;;;;;;;0.67;0.40;;;23.50;99.90;;;;;;4934846;29;20700;-66
2022/12/18 01:06:35;;;;;;;0.30;0.30;;;23.30;99.90;;;;;;4935295;29;20196;-68
2022/12/18 01:09:03;;;;;;;0.60;0.47;;;23.30;99.90;;;;;;4935426;29;20217;-74
2022/12/18 01:11:31;;;;;;;0.70;0.30;;;22.00;99.90;;;;;;4934952;29;20185;-68
2022/12/18 01:13:59;;;;;;;0.87;0.40;;;21.40;99.90;;;;;;4935173;29;20192;-67
2022/12/18 01:16:27;;;;;;;3.10;0.50;;;21.20;99.90;;;;;;4935182;29;20208;-72
2022/12/18 01:18:55;;;;;;;0.30;0.30;;;21.50;99.90;;;;;;4934681;29;20555;-68
2022/12/18 01:21:24;;;;;;;0.70;0.50;;;21.70;99.90;;;;;;4935138;29;20194;-67
2022/12/18 01:23:56;;;;;;;0.40;0.40;;;21.20;99.90;;;;;;4934789;29;20212;-68
2022/12/18 01:26:25;;;;;;;0.60;0.47;;;21.40;99.90;;;;;;4934266;29;20193;-68
2022/12/18 01:28:54;;;;;;;0.83;0.60;;;22.50;99.90;;;;;;4934892;29;20190;-71
2022/12/18 01:31:26;;;;;;;0.67;0.40;;;22.60;99.90;;;;;;4934981;29;20222;-67
2022/12/18 01:33:55;;;;;;;0.67;0.50;;;21.90;99.90;;;;;;4934473;29;20213;-68
2022/12/18 01:36:30;;;;;;;0.87;0.43;;;21.70;99.90;;;;;;4935032;29;20196;-69
2022/12/18 01:39:03;;;;;;;0.40;0.40;;;21.70;99.90;;;;;;4934810;29;20191;-67
2022/12/18 01:44:51;;;;;;;0.67;0.40;;;22.30;99.90;;;;;;4934695;29;20211;-66
2022/12/18 01:47:40;;;;;;;0.70;0.60;;;22.30;99.90;;;;;;4934304;29;20185;-78
2022/12/18 01:50:11;;;;;;;2.77;0.70;;;22.30;99.90;;;;;;4934199;29;20183;-78
2022/12/18 01:52:41;;;;;;;2.37;0.60;;;22.30;99.90;;;;;;4934350;29;20233;-68
2022/12/18 01:55:10;;;;;;;1.83;0.60;;;22.20;99.90;;;;;;4934649;29;20531;-68
2022/12/18 01:57:39;;;;;;;2.70;0.70;;;21.80;99.90;;;;;;4933643;29;20266;-68
2022/12/18 02:00:17;;;;;;;2.87;0.63;;;21.40;99.90;;;;;;4934607;29;20312;-67
2022/12/18 02:02:46;;;;;;;1.10;0.63;;;21.70;99.90;;;;;;4934346;29;20192;-69
2022/12/18 02:05:30;;;;;;;2.23;0.60;;;21.40;99.90;;;;;;4933740;29;20219;-68
2022/12/18 02:08:09;;;;;;;2.47;0.70;;;21.30;99.90;;;;;;4934233;29;20271;-67
2022/12/18 02:10:59;;;;;;;4.53;1.00;;;21.30;99.90;;;;;;4934341;29;20188;-67
2022/12/18 02:13:45;;;;;;;4.13;0.93;;;21.40;99.90;;;;;;4934069;29;20186;-68
2022/12/18 02:16:54;;;;;;;3.57;1.00;;;21.60;99.90;;;;;;4934093;29;20193;-73
2022/12/18 02:19:53;;;;;;;3.70;1.10;;;21.50;99.90;;;;;;4905949;29;20208;-68
2022/12/18 02:22:42;;;;;;;5.37;1.30;;;21.50;99.90;;;;;;4933181;29;20279;-67
2022/12/18 02:25:34;;;;;;;9.27;1.30;;;21.40;99.90;;;;;;4917493;29;20232;-67
2022/12/18 02:28:06;;;;;;;8.20;1.47;;;21.00;99.90;;;;;;4934259;29;20204;-68
2022/12/18 02:30:35;;;;;;;6.63;1.67;;;20.60;99.90;;;;;;4934126;29;20722;-69
2022/12/18 02:33:07;;;;;;;8.87;2.07;;;19.90;99.90;;;;;;4933388;29;20203;-68
2022/12/18 02:35:36;;;;;;;6.40;1.37;;;19.40;99.90;;;;;;4934119;29;20227;-70
2022/12/18 02:38:06;;;;;;;5.67;1.50;;;19.30;99.90;;;;;;4934263;29;20263;-68
2022/12/18 02:40:35;;;;;;;6.90;1.20;;;19.40;99.90;;;;;;4933740;29;20297;-69
2022/12/18 02:43:14;;;;;;;8.97;2.27;;;19.40;99.90;;;;;;4933688;29;20181;-69
2022/12/18 02:45:57;;;;;;;3.20;1.00;;;19.80;99.90;;;;;;4933984;29;20223;-68
2022/12/18 02:48:35;;;;;;;4.43;1.00;;;19.90;99.90;;;;;;4933703;29;20661;-67
2022/12/18 02:51:17;;;;;;;4.07;1.20;;;20.30;99.90;;;;;;4934233;29;20187;-70
2022/12/18 02:53:58;;;;;;;6.87;1.33;;;20.60;99.90;;;;;;4933585;29;20237;-68
2022/12/18 02:56:52;;;;;;;6.53;1.10;;;21.00;99.90;;;;;;4933497;29;20187;-67
2022/12/18 02:59:39;;;;;;;3.50;0.93;;;21.30;99.90;;;;;;4935373;29;20605;-71
2022/12/18 03:02:12;;;;;;;6.57;1.40;;;21.50;99.90;;;;;;4933989;29;20182;-76
2022/12/18 03:04:48;;;;;;;5.80;1.43;;;21.40;99.90;;;;;;4933098;29;20226;-74
2022/12/18 03:07:28;;;;;;;4.70;1.47;;;22.00;99.90;;;;;;4934113;29;20246;-76
2022/12/18 03:09:56;;;;;;;5.20;1.37;;;22.50;99.90;;;;;;4933283;29;20180;-75
2022/12/18 03:12:38;;;;;;;2.70;0.90;;;22.70;99.90;;;;;;4933981;29;20479;-75
2022/12/18 03:15:30;;;;;;;7.50;1.27;;;22.90;99.90;;;;;;4933531;29;20184;-75
2022/12/18 03:18:06;;;;;;;6.30;1.23;;;23.10;99.90;;;;;;4936564;29;20228;-75
2022/12/18 03:20:36;;;;;;;5.37;1.27;;;22.60;99.90;;;;;;4937251;29;20176;-72
2022/12/18 03:23:09;;;;;;;3.90;1.17;;;22.80;99.90;;;;;;4936343;29;20176;-73
2022/12/18 03:25:41;;;;;;;3.50;1.10;;;23.00;99.90;;;;;;4936665;29;20227;-72
2022/12/18 03:28:15;;;;;;;4.93;1.13;;;22.90;99.90;;;;;;4937204;29;20187;-75
2022/12/18 03:30:46;;;;;;;7.13;1.30;;;23.10;99.90;;;;;;4937225;29;20188;-74
2022/12/18 03:33:20;;;;;;;3.87;1.17;;;23.00;99.90;;;;;;4936279;29;20187;-73
2022/12/18 03:35:48;;;;;;;6.50;1.07;;;23.30;99.90;;;;;;4936880;29;20180;-75
2022/12/18 03:38:15;;;;;;;5.50;1.10;;;23.80;99.90;;;;;;4936710;29;20248;-75
2022/12/18 03:40:45;;;;;;;6.00;1.40;;;23.90;99.90;;;;;;4936070;29;20202;-76
2022/12/18 03:43:23;;;;;;;5.50;1.40;;;24.60;99.90;;;;;;4936808;29;20271;-73
2022/12/18 03:46:19;;;;;;;4.90;1.37;;;24.90;99.90;;;;;;4936439;29;20671;-77
2022/12/18 03:48:53;;;;;;;5.40;1.50;;;24.70;99.90;;;;;;4936219;29;20206;-75
2022/12/18 03:51:38;;;;;;;6.80;1.33;;;24.20;99.90;;;;;;4919342;29;20266;-74
2022/12/18 03:54:08;;;;;;;10.03;3.10;;;24.30;99.90;;;;;;4935980;29;20236;-73
2022/12/18 03:56:44;;;;;;;4.93;1.37;;;23.80;99.90;;;;;;4936361;29;20183;-78
2022/12/18 03:59:14;;;;;;;4.23;1.03;;;23.30;99.90;;;;;;4936192;29;20266;-70
2022/12/18 04:01:47;;;;;;;3.20;1.10;;;23.20;99.90;;;;;;4935898;29;20275;-78
2022/12/18 04:04:16;;;;;;;3.83;1.43;;;22.90;99.90;;;;;;4936042;29;20717;-75
2022/12/18 04:06:46;;;;;;;7.43;0.93;;;23.00;99.90;;;;;;4936355;29;20199;-76
2022/12/18 04:09:14;;;;;;;6.23;1.13;;;23.00;99.90;;;;;;4935871;29;20180;-78
2022/12/18 04:11:46;;;;;;;6.87;1.70;;;22.90;99.90;;;;;;4935644;29;20184;-79
2022/12/18 04:14:14;;;;;;;3.87;1.20;;;22.70;99.90;;;;;;4935869;29;20187;-76
2022/12/18 04:16:42;;;;;;;4.63;0.93;;;22.70;99.90;;;;;;4939900;29;20188;-75
2022/12/18 04:19:09;;;;;;;8.60;1.20;;;22.60;99.90;;;;;;4942503;29;20192;-72
2022/12/18 04:21:37;;;;;;;4.60;1.30;;;23.20;99.90;;;;;;4939469;29;20195;-77
2022/12/18 04:24:04;;;;;;;5.90;1.40;;;23.30;99.90;;;;;;4936264;29;20216;-75
2022/12/18 04:26:32;;;;;;;4.47;1.17;;;23.60;99.90;;;;;;4939703;29;20192;-77
2022/12/18 04:28:59;;;;;;;6.10;1.20;;;23.20;99.90;;;;;;4934684;29;20191;-73
2022/12/18 04:31:27;;;;;;;5.77;1.20;;;22.80;99.90;;;;;;4937522;29;20722;-77
2022/12/18 04:33:55;;;;;;;6.67;1.43;;;22.60;99.90;;;;;;4935525;29;20188;-74
2022/12/18 04:36:22;;;;;;;7.40;1.43;;;22.30;99.90;;;;;;4935542;29;20207;-75
2022/12/18 04:38:50;;;;;;;5.37;1.43;;;22.20;99.90;;;;;;4935129;29;20241;-75
2022/12/18 04:41:17;;;;;;;6.70;1.90;;;22.10;99.90;;;;;;4935659;29;20579;-76
2022/12/18 04:43:44;;;;;;;7.67;1.43;;;22.30;99.90;;;;;;4935400;29;20263;-76
2022/12/18 04:46:12;;;;;;;7.47;1.57;;;22.40;99.90;;;;;;4935554;29;20187;-78
2022/12/18 04:48:41;;;;;;;5.37;1.57;;;22.40;99.90;;;;;;4935695;29;20180;-77
2022/12/18 04:51:08;;;;;;;7.83;1.40;;;22.30;99.90;;;;;;4935539;29;20188;-74
2022/12/18 04:53:36;;;;;;;5.33;1.60;;;22.20;99.90;;;;;;4933450;29;20240;-77
2022/12/18 04:56:09;;;;;;;2.00;0.90;;;22.60;99.90;;;;;;4927311;29;20188;-78
2022/12/18 04:58:37;;;;;;;4.10;1.20;;;23.20;99.90;;;;;;4935519;29;20176;-79
2022/12/18 05:01:05;;;;;;;8.53;1.40;;;23.50;99.90;;;;;;4934439;29;20195;-79
2022/12/18 05:03:32;;;;;;;2.83;1.13;;;23.10;99.90;;;;;;4935089;29;20263;-79
2022/12/18 05:06:00;;;;;;;3.73;1.23;;;23.10;99.90;;;;;;4935227;29;20277;-78
2022/12/18 05:08:27;;;;;;;6.07;1.50;;;23.30;99.90;;;;;;4934936;29;20291;-75
2022/12/18 05:11:21;;;;;;;6.67;1.57;;;23.50;99.90;;;;;;4935023;29;20315;-74
2022/12/18 05:13:48;;;;;;;8.77;1.70;;;23.10;99.90;;;;;;4931922;29;20678;-76
2022/12/18 05:16:16;;;;;;;3.20;0.87;;;23.40;99.90;;;;;;4934452;29;20547;-77
2022/12/18 05:18:43;;;;;;;3.77;1.00;;;23.60;99.90;;;;;;4934818;29;20188;-80
2022/12/18 05:21:11;;;;;;;6.93;1.73;;;23.90;99.90;;;;;;4934888;29;20521;-77
2022/12/18 05:23:38;;;;;;;7.47;1.37;;;23.70;99.90;;;;;;4934225;29;20185;-76
2022/12/18 05:26:07;;;;;;;3.13;0.80;;;23.50;99.90;;;;;;4934762;29;20208;-79
2022/12/18 05:28:36;;;;;;;4.50;1.23;;;23.60;99.90;;;;;;4934742;29;20655;-75
2022/12/18 05:31:05;;;;;;;2.67;1.17;;;23.70;99.90;;;;;;4934515;29;20188;-78
2022/12/18 05:33:35;;;;;;;3.87;0.80;;;23.30;99.90;;;;;;4934559;29;20192;-77
2022/12/18 05:36:05;;;;;;;3.90;0.87;;;22.70;99.90;;;;;;4935190;29;20243;-76
2022/12/18 05:38:34;;;;;;;4.80;0.80;;;22.60;99.90;;;;;;4934036;29;20180;-77
2022/12/18 05:41:02;;;;;;;2.60;1.00;;;22.60;99.90;;;;;;4934379;29;20209;-72
2022/12/18 05:43:30;;;;;;;2.50;1.07;;;23.00;99.90;;;;;;4934782;29;20188;-73
2022/12/18 05:45:57;;;;;;;2.47;0.70;;;23.30;99.90;;;;;;4934599;29;20184;-76
2022/12/18 05:48:25;;;;;;;2.97;0.80;;;23.30;99.90;;;;;;4934618;29;20200;-74
2022/12/18 05:50:52;;;;;;;10.97;1.07;;;23.30;99.90;;;;;;4934605;29;20242;-77
2022/12/18 05:53:21;;;;;;;3.93;0.80;;;23.20;99.90;;;;;;4934175;29;20246;-70
2022/12/18 05:55:53;;;;;;;3.57;1.13;;;22.70;99.90;;;;;;4934184;29;20750;-73
2022/12/18 05:58:20;;;;;;;1.47;0.70;;;22.80;99.90;;;;;;4934650;29;20188;-71
2022/12/18 06:00:47;;;;;;;4.10;1.07;;;22.60;99.90;;;;;;4934335;29;20185;-76
2022/12/18 06:03:15;;;;;;;3.60;1.30;;;22.50;99.90;;;;;;4934600;29;20244;-70
2022/12/18 06:05:44;;;;;;;3.37;1.13;;;22.60;99.90;;;;;;4933995;29;20350;-70
2022/12/18 06:08:13;;;;;;;6.10;1.30;;;22.80;99.90;;;;;;4934144;29;20184;-80
2022/12/18 06:10:41;;;;;;;6.70;1.60;;;22.60;99.90;;;;;;4934579;29;20270;-71
2022/12/18 06:13:09;;;;;;;4.93;1.40;;;22.70;99.90;;;;;;4941808;29;20188;-70
2022/12/18 06:15:39;;;;;;;5.33;1.80;;;22.70;99.90;;;;;;4933426;29;20185;-76
2022/12/18 06:18:07;;;;;;;3.07;1.17;;;22.80;99.90;;;;;;4933927;29;20188;-70
2022/12/18 06:20:36;;;;;;;3.63;1.27;;;22.40;99.90;;;;;;4934002;29;20551;-73
2022/12/18 06:23:03;;;;;;;7.20;1.97;;;22.10;99.90;;;;;;4933480;29;20196;-70
2022/12/18 06:25:31;;;;;;;3.87;1.13;;;22.10;99.90;;;;;;4933291;29;20573;-71
2022/12/18 06:27:58;;;;;;;6.93;1.67;;;22.10;99.90;;;;;;4933337;29;20212;-70
2022/12/18 06:30:26;;;;;;;5.47;1.10;;;21.90;99.90;;;;;;4931187;29;20185;-69
2022/12/18 06:32:53;;;;;;;5.13;1.23;;;21.80;99.90;;;;;;4934379;29;20192;-70
2022/12/18 06:35:20;;;;;;;9.13;1.93;;;21.90;99.90;;;;;;4935618;29;20196;-68
2022/12/18 06:37:48;;;;;;;6.27;2.23;;;21.90;99.90;;;;;;4933616;29;20185;-70
2022/12/18 06:40:15;;;;;;;6.80;1.90;;;21.90;99.90;;;;;;4934627;29;20571;-70
2022/12/18 06:42:42;;;;;;;6.90;1.73;;;21.90;99.90;;;;;;4934531;29;20280;-71
2022/12/18 06:45:11;;;;;;;8.87;2.77;;;21.90;99.90;;;;;;4933002;29;20213;-70
2022/12/18 06:47:38;;;;;;;6.73;2.23;;;22.10;99.90;;;;;;4933505;29;20268;-72
2022/12/18 06:50:06;;;;;;;10.37;1.60;;;21.70;99.90;;;;;;4933902;29;20198;-73
2022/12/18 06:52:34;;;;;;;5.27;1.70;;;21.90;99.90;;;;;;4936399;29;20683;-69
2022/12/18 06:55:02;;;;;;;7.23;1.80;;;21.90;99.90;;;;;;4937795;29;20602;-69
2022/12/18 06:57:30;;;;;;;12.87;2.03;;;21.80;99.90;;;;;;4939016;29;20188;-70
2022/12/18 06:59:58;;;;;;;11.13;1.57;;;21.80;99.90;;;;;;4938279;29;20185;-70
2022/12/18 07:02:25;;;;;;;5.03;1.50;;;21.70;99.90;;;;;;4938283;29;20183;-68
2022/12/18 07:04:52;;;;;;;7.77;1.40;;;21.70;99.90;;;;;;4937032;29;20239;-68
2022/12/18 07:07:20;;;;;;;4.20;0.90;;;21.60;99.90;;;;;;4936093;29;20190;-72
2022/12/18 07:09:49;;;;;;;2.03;0.97;;;21.50;99.90;;;;;;4937345;29;20188;-69
2022/12/18 07:12:17;;;;;;;3.67;0.80;;;21.50;99.90;;;;;;4937287;29;20199;-71
2022/12/18 07:14:44;;;;;;;2.77;0.77;;;21.30;99.90;;;;;;4937123;29;20181;-72
2022/12/18 07:17:12;;;;;;;4.90;1.00;;;21.20;99.90;;;;;;4936923;29;20223;-70
2022/12/18 07:19:39;;;;;;;4.40;0.90;;;21.20;99.90;;;;;;4933098;29;20188;-69
2022/12/18 07:22:07;;;;;;;2.73;0.70;;;21.20;99.90;;;;;;4936863;29;20183;-70
2022/12/18 07:24:34;;;;;;;8.47;1.00;;;21.30;99.90;;;;;;4936933;29;20202;-69
2022/12/18 07:27:02;;;;;;;6.23;0.80;;;21.10;99.90;;;;;;4937113;29;20188;-71
2022/12/18 07:29:29;;;;;;;2.70;0.90;;;21.20;99.90;;;;;;4936399;29;20183;-71
2022/12/18 07:31:57;;;;;;;2.50;0.90;;;21.10;99.90;;;;;;4937458;29;20270;-75
2022/12/18 07:34:24;;;;;;;4.03;1.20;;;21.20;99.90;;;;;;4937265;29;20754;-74
2022/12/18 07:36:51;;;;;;;4.00;1.00;;;21.10;99.90;;;;;;4936313;29;20179;-70
2022/12/18 07:39:19;;;;;;;6.73;1.30;;;20.90;99.90;;;;;;4935635;29;20239;-74
2022/12/18 07:42:30;;;;;;;3.50;1.00;;;20.80;99.90;;;;;;4937079;29;20208;-68
2022/12/18 07:44:33;;;;;;;4.30;1.03;;;20.70;99.90;;;;;;4936318;29;20698;-72
2022/12/18 07:47:00;;;;;;;4.93;1.37;;;20.70;99.90;;;;;;4936163;29;20181;-69
2022/12/18 07:49:28;;;;;;;4.00;1.00;;;20.80;99.90;;;;;;4936917;29;20186;-71
2022/12/18 07:51:57;;;;;;;3.97;1.40;;;20.60;99.90;;;;;;4936262;29;20192;-70
2022/12/18 07:54:25;;;;;;;5.10;1.43;;;20.50;99.90;;;;;;4936892;29;20273;-71
2022/12/18 07:56:53;;;;;;;5.47;1.10;;;20.30;99.90;;;;;;4936776;29;20183;-69
2022/12/18 07:59:20;;;;;;;4.37;1.23;;;20.20;99.90;;;;;;4936013;29;20553;-70
2022/12/18 08:01:48;;;;;;;8.50;1.77;;;20.10;99.90;;;;;;4936395;29;20186;-69
2022/12/18 08:04:15;;;;;;;8.47;1.37;;;19.90;99.90;;;;;;4936959;29;20330;-71
2022/12/18 08:06:42;;;;;;;8.07;1.70;;;19.90;99.90;;;;;;4939156;29;20194;-70
2022/12/18 08:09:11;;;;;;;8.73;1.87;;;19.80;99.90;;;;;;4939039;29;20189;-71
2022/12/18 08:11:38;;;;;;;6.27;1.20;;;19.70;99.90;;;;;;4936539;29;20659;-70
2022/12/18 08:14:05;;;;;;;8.00;1.30;;;19.60;99.90;;;;;;4935780;29;20193;-71
2022/12/18 08:16:33;;;;;;;6.50;1.40;;;19.60;99.90;;;;;;4936132;29;20179;-69
2022/12/18 08:19:00;;;;;;;5.33;1.87;;;19.50;99.90;;;;;;4936298;29;20695;-72
2022/12/18 08:21:30;;;;;;;5.97;1.50;;;19.50;99.90;;;;;;4916846;29;20189;-68
2022/12/18 08:24:00;;;;;;;11.30;1.90;;;19.40;99.90;;;;;;4925586;29;20249;-68
2022/12/18 08:26:30;;;;;;;6.90;1.77;;;19.40;99.90;;;;;;4936296;29;20186;-70
2022/12/18 08:28:59;;;;;;;4.30;1.23;;;19.40;99.90;;;;;;4936059;29;20313;-70
2022/12/18 08:31:29;;;;;;;5.47;1.77;;;19.40;99.90;;;;;;4935914;29;20548;-68
2022/12/18 08:33:57;;;;;;;6.47;1.30;;;19.30;99.90;;;;;;4934566;29;20548;-71
2022/12/18 08:36:26;;;;;;;7.53;2.23;;;19.30;99.90;;;;;;4934480;29;20296;-70
2022/12/18 08:38:53;;;;;;;6.53;1.57;;;19.20;99.90;;;;;;4935940;29;20186;-70
2022/12/18 08:41:21;;;;;;;9.60;1.97;;;19.00;99.90;;;;;;4936046;29;20177;-69
2022/12/18 08:46:38;;;;;;;5.33;1.53;;;18.90;99.90;;;;;;4936264;29;20269;-70
2022/12/18 08:49:06;;;;;;;5.60;1.60;;;18.70;99.90;;;;;;4935970;29;20176;-71
2022/12/18 08:51:34;;;;;;;6.33;1.50;;;18.60;99.90;;;;;;4935299;29;20189;-72
2022/12/18 08:54:02;;;;;;;8.77;2.03;;;18.60;99.90;;;;;;4935307;29;20239;-68
2022/12/18 08:56:29;;;;;;;6.73;1.70;;;18.50;99.90;;;;;;4934419;29;20196;-69
2022/12/18 08:58:57;;;;;;;13.63;1.80;;;18.40;99.90;;;;;;4935108;29;20848;-69
2022/12/18 09:01:24;;;;;;;6.97;1.50;;;18.40;99.90;;;;;;4935609;29;20251;-69
2022/12/18 09:03:52;;;;;;;6.63;1.67;;;18.40;99.90;;;;;;4935236;29;20216;-68
2022/12/18 09:06:21;;;;;;;14.70;2.20;;;18.40;99.90;;;;;;4935035;29;20189;-70
2022/12/18 09:08:49;;;;;;;11.40;1.70;;;18.40;99.90;;;;;;4935365;29;20219;-72
2022/12/18 09:11:22;;;;;;;8.50;1.57;;;18.40;99.90;;;;;;4936041;29;20189;-70
2022/12/18 09:13:50;;;;;;;5.67;1.33;;;18.30;99.90;;;;;;4933896;29;20181;-76
2022/12/18 09:16:19;;;;;;;7.87;1.30;;;18.20;99.90;;;;;;4936449;29;20176;-73
2022/12/18 09:18:47;;;;;;;6.03;1.47;;;18.10;99.90;;;;;;4936100;29;20177;-68
2022/12/18 09:21:17;;;;;;;7.10;1.43;;;18.00;99.90;;;;;;4936328;29;20183;-70
2022/12/18 09:23:49;;;;;;;7.07;1.70;;;17.90;99.90;;;;;;4919232;29;20289;-73
2022/12/18 09:26:16;;;;;;;5.37;1.60;;;17.70;99.90;;;;;;4936397;29;20596;-73
2022/12/18 09:28:44;;;;;;;7.40;1.70;;;17.70;99.90;;;;;;4935037;29;20284;-70
2022/12/18 09:31:13;;;;;;;9.03;1.83;;;17.70;99.90;;;;;;4936079;29;20189;-71
2022/12/18 09:33:41;;;;;;;4.60;1.50;;;17.80;99.90;;;;;;4934373;29;20180;-71
2022/12/18 09:36:10;;;;;;;9.93;2.03;;;17.80;99.90;;;;;;4935479;29;20199;-68
2022/12/18 09:38:37;;;;;;;3.33;1.40;;;17.80;99.90;;;;;;4936139;29;20255;-70
2022/12/18 09:41:37;;;;;;;4.47;1.60;;;17.70;99.90;;;;;;4935969;29;20223;-67
2022/12/18 09:44:30;;;;;;;4.10;1.70;;;17.60;99.90;;;;;;4918258;29;20215;-73
2022/12/18 09:47:16;;;;;;;8.03;1.77;;;17.60;99.90;;;;;;4928276;29;20200;-72
2022/12/18 09:49:50;;;;;;;6.60;1.93;;;17.60;99.90;;;;;;4935555;29;20252;-73
2022/12/18 09:52:25;;;;;;;3.53;1.40;;;17.60;99.90;;;;;;4934720;29;20641;-72
2022/12/18 09:55:10;;;;;;;5.73;1.63;;;17.60;99.90;;;;;;4936601;29;20242;-76
2022/12/18 09:57:42;;;;;;;7.00;1.40;;;17.60;99.90;;;;;;4936016;29;20185;-73
2022/12/18 10:00:22;;;;;;;5.50;1.10;;;17.50;99.90;;;;;;4934444;29;20196;-69
2022/12/18 10:03:00;;;;;;;5.63;1.80;;;17.40;99.90;;;;;;4936010;29;20190;-72
2022/12/18 10:05:44;;;;;;;3.73;1.23;;;17.30;99.90;;;;;;4935830;29;20226;-69
2022/12/18 10:08:20;;;;;;;6.43;1.20;;;17.20;99.90;;;;;;4935809;29;20531;-73
2022/12/18 10:11:01;;;;;;;10.03;1.13;;;17.10;99.90;;;;;;4935798;29;20271;-68
2022/12/18 10:13:34;;;;;;;2.90;1.20;;;17.10;99.90;;;;;;4935804;29;20643;-70
2022/12/18 10:16:14;;;;;;;2.70;0.90;;;17.00;99.90;;;;;;4935665;29;20618;-67
2022/12/18 10:18:56;;;;;;;8.10;1.50;;;17.00;99.90;;;;;;4935253;29;20275;-68
2022/12/18 10:21:31;;;;;;;3.90;1.20;;;17.00;99.90;;;;;;4918606;29;20218;-68
2022/12/18 10:24:17;;;;;;;4.60;1.20;;;16.90;99.90;;;;;;4935655;29;20267;-73
2022/12/18 10:26:45;;;;;;;7.30;1.10;;;16.90;99.90;;;;;;4938792;29;20585;-69
2022/12/18 10:29:15;;;;;;;3.40;1.20;;;16.90;99.90;;;;;;4938402;29;20718;-68
2022/12/18 10:31:42;;;;;;;1.93;0.93;;;16.90;99.90;;;;;;4939785;29;20180;-69
2022/12/18 10:34:14;;;;;;;4.33;1.23;;;17.00;99.90;;;;;;4939383;29;20550;-69
2022/12/18 10:36:42;;;;;;;8.43;1.30;;;17.00;99.90;;;;;;4939074;29;20643;-68
2022/12/18 10:39:36;;;;;;;5.33;1.80;;;17.00;99.90;;;;;;4938997;29;20239;-69
2022/12/18 10:42:21;;;;;;;7.60;2.03;;;17.10;99.90;;;;;;4920581;29;20196;-70
2022/12/18 10:45:10;;;;;;;12.43;6.23;;;17.20;99.90;;;;;;4939528;29;20216;-68
2022/12/18 10:47:47;;;;;;;11.10;4.13;;;17.20;99.90;;;;;;4938974;29;20679;-69
2022/12/18 10:50:29;;;;;;;6.63;1.47;;;17.10;99.90;;;;;;4939058;29;20199;-74
2022/12/18 10:53:03;;;;;;;4.17;1.27;;;17.20;99.90;;;;;;4939055;29;20232;-70
2022/12/18 10:55:39;;;;;;;5.90;1.10;;;17.20;99.90;;;;;;4939325;29;20181;-75
2022/12/18 10:58:25;;;;;;;4.50;1.50;;;17.10;99.90;;;;;;4938936;29;20524;-68
2022/12/18 11:01:12;;;;;;;6.87;1.23;;;17.10;99.90;;;;;;4939216;29;20181;-74
2022/12/18 11:03:43;;;;;;;5.57;1.40;;;17.10;99.90;;;;;;4939015;29;20184;-74
2022/12/18 11:06:16;;;;;;;4.63;1.10;;;17.10;99.90;;;;;;4939188;29;20300;-73
2022/12/18 11:08:57;;;;;;;4.23;1.20;;;17.00;99.90;;;;;;4939160;29;20188;-75
2022/12/18 11:11:26;;;;;;;3.03;1.20;;;17.00;99.90;;;;;;4939114;29;20236;-74
2022/12/18 11:14:19;;;;;;;6.40;3.23;;;17.00;99.90;;;;;;4938908;29;20188;-71
2022/12/18 11:16:50;;;;;;;4.73;2.07;;;17.00;99.90;;;;;;4909566;29;20231;-72
2022/12/18 11:19:32;;;;;;;7.07;1.83;;;16.90;99.90;;;;;;4938776;29;20184;-69
2022/12/18 11:22:02;;;;;;;7.97;2.20;;;16.90;99.90;;;;;;4939023;29;20180;-69
2022/12/18 11:24:36;;;;;;;6.27;1.40;;;16.80;99.90;;;;;;4938644;29;20231;-75
2022/12/18 11:27:06;;;;;;;5.23;1.10;;;16.70;99.90;;;;;;4938734;29;20184;-76
2022/12/18 11:29:39;;;;;;;8.07;1.10;;;16.70;99.90;;;;;;4938655;29;20659;-73
2022/12/18 11:32:37;;;;;;;11.03;1.77;;;16.70;99.90;;;;;;4938659;29;20631;-69
2022/12/18 11:35:24;;;;;;;5.30;1.17;;;16.80;99.90;;;;;;4938459;29;20211;-75
2022/12/18 11:38:02;;;;;;;3.13;0.93;;;16.80;99.90;;;;;;4937775;29;20653;-76
2022/12/18 11:40:38;;;;;;;4.67;1.30;;;16.80;99.90;;;;;;4938369;29;20524;-70
2022/12/18 11:43:17;;;;;;;6.23;1.20;;;16.80;99.90;;;;;;4938550;29;20271;-70
2022/12/18 11:45:51;;;;;;;2.67;1.03;;;16.90;99.90;;;;;;4938991;29;20250;-69
2022/12/18 11:48:54;;;;;;;4.97;1.23;;;16.90;99.90;;;;;;4922182;29;20605;-77
2022/12/18 11:51:50;;;;;;;5.63;1.30;;;16.80;99.90;;;;;;4921048;29;20665;-73
2022/12/18 11:54:18;;;;;;;7.00;1.37;;;16.80;99.90;;;;;;4938585;29;20244;-76
2022/12/18 11:56:55;;;;;;;4.67;1.37;;;16.80;99.90;;;;;;4938288;29;20180;-69
2022/12/18 11:59:35;;;;;;;3.43;1.10;;;16.70;99.90;;;;;;4938275;29;20264;-71
2022/12/18 12:02:34;;;;;;;8.00;2.00;;;16.60;99.90;;;;;;4938499;29;20185;-71
2022/12/18 12:05:23;;;;;;;5.50;1.27;;;16.50;99.90;;;;;;4938084;29;20695;-74
2022/12/18 12:08:07;;;;;;;10.03;1.50;;;16.40;99.90;;;;;;4938052;29;20177;-69
2022/12/18 12:10:35;;;;;;;4.67;1.30;;;16.40;99.90;;;;;;4938649;29;20187;-69
2022/12/18 12:13:02;;;;;;;7.07;1.60;;;16.40;99.90;;;;;;4938006;29;20184;-75
2022/12/18 12:15:40;;;;;;;6.13;1.27;;;16.40;99.90;;;;;;4937720;29;20177;-76
2022/12/18 12:18:46;;;;;;;4.07;1.30;;;16.40;99.90;;;;;;4937806;29;20172;-68
2022/12/18 12:21:32;;;;;;;13.43;1.97;;;16.40;99.90;;;;;;4879270;29;20270;-71
2022/12/18 12:24:05;;;;;;;11.40;1.97;;;16.40;99.90;;;;;;4863526;29;20278;-74
2022/12/18 12:26:46;;;;;;;13.50;3.03;;;16.50;99.90;;;;;;4917291;29;20203;-69
2022/12/18 12:29:32;;;;;;;11.87;4.50;;;16.50;99.90;;;;;;4937917;29;20183;-71
2022/12/18 12:32:12;;;;;;;13.57;5.67;;;16.50;99.90;;;;;;4937717;29;20271;-68
2022/12/18 12:35:00;;;;;;;20.27;7.60;;;16.50;99.90;;;;;;4937213;29;20189;-75
2022/12/18 12:37:43;;;;;;;18.93;4.80;;;16.50;99.90;;;;;;4938053;29;20256;-71
2022/12/18 12:40:18;;;;;;;9.37;3.43;;;16.50;99.90;;;;;;4936789;29;20191;-68
2022/12/18 12:43:26;;;;;;;8.50;3.27;;;16.50;99.90;;;;;;4937146;29;20191;-68
2022/12/18 12:46:07;;;;;;;8.90;3.60;;;16.40;99.90;;;;;;4905280;29;20278;-72
2022/12/18 12:48:58;;;;;;;15.67;4.50;;;16.40;99.90;;;;;;4936675;29;20180;-70
2022/12/18 12:51:37;;;;;;;14.67;5.73;;;16.30;99.90;;;;;;4918235;29;20185;-68
2022/12/18 12:54:12;;;;;;;18.00;5.93;;;16.20;99.90;;;;;;4916745;29;20233;-69
2022/12/18 12:57:04;;;;;;;8.47;3.10;;;16.20;99.90;;;;;;4918229;29;20192;-70
2022/12/18 12:59:47;;;;;;;6.13;2.00;;;16.10;99.90;;;;;;4926861;29;20206;-70
2022/12/18 13:02:36;;;;;;;6.93;1.53;;;16.00;99.90;;;;;;4936418;29;20244;-73
2022/12/18 13:05:25;;;;;;;8.77;1.70;;;16.10;99.90;;;;;;4937375;29;20216;-70
2022/12/18 13:08:12;;;;;;;10.27;2.27;;;16.10;99.90;;;;;;4936830;29;20176;-70
2022/12/18 13:10:42;;;;;;;6.53;1.20;;;16.10;99.90;;;;;;4936657;29;20185;-70
2022/12/18 13:13:16;;;;;;;8.87;1.63;;;16.10;99.90;;;;;;4937096;29;20662;-76
2022/12/18 13:15:44;;;;;;;8.73;1.67;;;16.10;99.90;;;;;;4936910;29;20183;-75
2022/12/18 13:18:15;;;;;;;7.50;1.63;;;16.00;99.90;;;;;;4936959;29;20176;-73
2022/12/18 13:21:08;;;;;;;5.43;1.40;;;16.00;99.90;;;;;;4936474;29;20267;-70
2022/12/18 13:23:37;;;;;;;6.40;1.60;;;16.00;99.90;;;;;;4933572;29;20204;-70
2022/12/18 13:26:08;;;;;;;11.17;1.83;;;16.00;99.90;;;;;;4936542;29;20232;-70